Time;durP1;ratioP1;P1;durP2;ratioP2;P2;SDS_P1;SDS_P2;PMS_P1;PMS_P2;Temp;Humidity;BMP_temperature;BMP_pressure;BME280_temperature;BME280_humidity;BME280_pressure;Samples;Min_cycle;Max_cycle;Signal;HPM_P1;HPM_P2
2023/10/16 00:01:26;;;;;;;0.30;0.30;;;;;;;15.02;59.64;102383.47;5085785;28;20157;-72
2023/10/16 00:03:52;;;;;;;0.50;0.50;;;;;;;15.27;59.24;102384.38;5071680;28;20062;-69
2023/10/16 00:06:17;;;;;;;0.28;0.28;;;;;;;15.53;58.06;102382.31;5070960;28;20552;-71
2023/10/16 00:08:53;;;;;;;0.35;0.35;;;;;;;15.95;56.56;102377.16;5052299;28;20037;-71
2023/10/16 00:11:23;;;;;;;0.30;0.30;;;;;;;15.86;56.81;102381.22;5070287;28;20037;-70
2023/10/16 00:13:49;;;;;;;0.30;0.30;;;;;;;15.01;59.72;102385.34;5070387;28;20033;-72
2023/10/16 00:16:16;;;;;;;0.25;0.25;;;;;;;15.58;58.68;102381.66;5070797;28;20033;-70
2023/10/16 00:18:42;;;;;;;0.25;0.25;;;;;;;14.82;60.74;102384.38;5070458;28;20033;-71
2023/10/16 00:21:08;;;;;;;0.25;0.25;;;;;;;15.34;59.01;102379.72;5070840;28;20725;-71
2023/10/16 00:23:40;;;;;;;0.40;0.40;;;;;;;15.75;57.89;102378.19;5070887;28;20033;-71
2023/10/16 00:26:21;;;;;;;0.40;0.40;;;;;;;15.79;58.13;102375.84;5074517;28;20127;-70
2023/10/16 00:28:46;;;;;;;0.30;0.30;;;;;;;15.80;56.77;102372.91;5056303;28;20036;-70
2023/10/16 00:31:20;;;;;;;0.30;0.30;;;;;;;16.24;56.16;102369.13;5056162;28;20027;-70
2023/10/16 00:33:48;;;;;;;0.20;0.20;;;;;;;15.40;58.38;102368.84;5074090;28;20040;-70
2023/10/16 00:36:13;;;;;;;0.17;0.17;;;;;;;15.67;57.79;102383.03;5074567;28;20124;-71
2023/10/16 00:38:39;;;;;;;0.10;0.10;;;;;;;15.88;57.50;102371.78;5074121;28;20444;-70
2023/10/16 00:41:17;;;;;;;0.20;0.20;;;;;;;16.13;56.08;102380.75;5074271;28;20573;-71
2023/10/16 00:43:45;;;;;;;0.10;0.10;;;;;;;15.28;59.15;102376.00;5073839;28;20048;-70
2023/10/16 00:46:19;;;;;;;0.20;0.20;;;;;;;13.56;63.88;102378.59;5055242;28;20035;-71
2023/10/16 00:48:46;;;;;;;0.30;0.30;;;;;;;15.43;58.69;102378.44;5073899;28;20496;-71
2023/10/16 00:51:13;;;;;;;0.30;0.30;;;;;;;15.32;58.17;102376.41;5074259;28;20016;-70
2023/10/16 00:53:40;;;;;;;0.30;0.30;;;;;;;14.93;58.35;102372.06;5073768;28;20569;-71
2023/10/16 00:56:14;;;;;;;0.25;0.25;;;;;;;14.84;60.42;102379.59;5076210;28;21738;-70
2023/10/16 00:58:43;;;;;;;0.38;0.38;;;;;;;14.51;61.37;102378.91;5081065;28;20094;-70
2023/10/16 01:01:14;;;;;;;0.30;0.30;;;;;;;14.84;60.56;102376.88;5073547;28;20048;-71
2023/10/16 01:03:42;;;;;;;0.20;0.20;;;;;;;15.25;58.96;102379.13;5073543;28;20127;-70
2023/10/16 01:06:24;;;;;;;0.20;0.20;;;;;;;15.03;58.80;102368.88;5073898;28;20128;-72
2023/10/16 01:08:51;;;;;;;0.20;0.20;;;;;;;14.98;59.70;102374.94;5074361;28;20491;-70
2023/10/16 01:11:19;;;;;;;0.30;0.30;;;;;;;14.44;61.94;102379.97;5055245;28;20047;-70
2023/10/16 01:13:48;;;;;;;0.32;0.32;;;;;;;15.01;60.29;102379.09;5073315;28;20032;-70
2023/10/16 01:16:17;;;;;;;0.40;0.40;;;;;;;14.59;62.34;102386.78;5073687;28;20073;-71
2023/10/16 01:18:44;;;;;;;0.20;0.20;;;;;;;14.63;61.24;102398.00;5073346;28;20044;-70
2023/10/16 01:21:12;;;;;;;0.20;0.20;;;;;;;14.55;62.33;102388.25;5073762;28;20538;-69
2023/10/16 01:23:39;;;;;;;0.30;0.30;;;;;;;14.27;63.55;102389.56;5073472;28;20094;-72
2023/10/16 01:26:06;;;;;;;0.22;0.22;;;;;;;15.35;60.82;102375.97;5073400;28;20036;-71
2023/10/16 01:28:32;;;;;;;0.30;0.30;;;;;;;14.79;62.43;102384.00;5073272;28;20548;-70
2023/10/16 01:31:00;;;;;;;0.30;0.30;;;;;;;15.44;59.93;102372.81;5073073;28;20120;-70
2023/10/16 01:33:25;;;;;;;0.20;0.20;;;;;;;14.50;63.34;102379.97;5073350;28;20047;-69
2023/10/16 01:35:51;;;;;;;0.40;0.40;;;;;;;15.31;60.95;102369.34;5072782;28;20453;-70
2023/10/16 01:38:19;;;;;;;0.47;0.47;;;;;;;15.12;61.22;102364.84;5073084;28;20516;-70
2023/10/16 01:43:44;;;;;;;0.30;0.30;;;;;;;15.04;61.61;102365.09;4952145;29;20464;-71
2023/10/16 01:46:12;;;;;;;0.30;0.30;;;;;;;15.22;60.91;102365.22;4952022;29;20063;-72
2023/10/16 01:48:41;;;;;;;0.30;0.30;;;;;;;15.56;59.65;102370.22;4952836;29;20073;-73
2023/10/16 01:51:19;;;;;;;0.32;0.32;;;;;;;15.71;59.72;102368.81;4954058;29;20115;-71
2023/10/16 01:53:50;;;;;;;0.50;0.50;;;;;;;15.49;59.32;102354.00;4951738;29;20051;-71
2023/10/16 01:56:17;;;;;;;0.30;0.30;;;;;;;15.95;58.07;102361.72;4969207;28;20051;-70
2023/10/16 01:58:44;;;;;;;0.20;0.20;;;;;;;15.65;58.94;102358.03;4958665;28;20043;-72
2023/10/16 02:01:15;;;;;;;0.20;0.20;;;;;;;14.83;60.35;102361.72;4952086;29;20429;-70
2023/10/16 02:03:44;;;;;;;;;;;;;;;15.58;58.17;102352.69;4952299;29;20508;-71
2023/10/16 02:06:13;;;;;;;0.20;0.20;;;;;;;15.41;58.35;102361.56;4951822;29;19957;-71
2023/10/16 02:08:40;;;;;;;0.20;0.20;;;;;;;15.50;58.64;102358.38;4952043;29;20047;-71
2023/10/16 02:11:06;;;;;;;0.30;0.30;;;;;;;16.09;56.27;102354.28;4951408;29;20130;-71
2023/10/16 02:13:35;;;;;;;0.20;0.20;;;;;;;15.64;57.03;102362.66;4951568;29;20130;-71
2023/10/16 02:16:06;;;;;;;0.25;0.25;;;;;;;15.46;57.86;102357.16;4952063;29;20112;-70
2023/10/16 02:18:36;;;;;;;;;;;;;;;15.73;58.08;102357.75;4968422;28;20123;-71
2023/10/16 02:21:11;;;;;;;0.30;0.30;;;;;;;15.19;59.72;102354.84;5034912;28;20019;-71
2023/10/16 02:23:36;;;;;;;0.30;0.30;;;;;;;14.35;63.64;102363.13;5051255;28;20056;-70
2023/10/16 02:26:05;;;;;;;0.30;0.30;;;;;;;14.74;61.77;102367.59;5051142;28;20033;-71
2023/10/16 02:28:32;;;;;;;0.20;0.20;;;;;;;14.99;61.09;102363.06;5051229;28;20392;-70
2023/10/16 02:31:13;;;;;;;0.40;0.40;;;;;;;14.96;61.42;102369.75;5051417;28;20554;-71
2023/10/16 02:33:44;;;;;;;0.30;0.30;;;;;;;14.37;63.04;102371.88;5051312;28;20526;-70
2023/10/16 02:36:09;;;;;;;0.20;0.20;;;;;;;13.96;64.79;102366.75;5051511;28;20103;-70
2023/10/16 02:38:34;;;;;;;0.25;0.25;;;;;;;15.11;59.90;102368.63;5051287;28;20168;-71
2023/10/16 02:41:07;;;;;;;0.28;0.28;;;;;;;14.54;62.92;102372.25;5051160;28;20075;-71
2023/10/16 02:43:37;;;;;;;0.40;0.40;;;;;;;14.13;63.45;102370.66;5051112;28;20086;-70
2023/10/16 02:46:04;;;;;;;0.20;0.20;;;;;;;14.83;61.47;102367.13;5057670;28;20039;-72
2023/10/16 02:48:30;;;;;;;0.30;0.30;;;;;;;13.58;65.91;102365.72;5071921;28;20056;-72
2023/10/16 02:50:59;;;;;;;0.40;0.40;;;;;;;14.08;65.02;102370.47;5086095;28;20113;-71
2023/10/16 02:53:26;;;;;;;0.22;0.22;;;;;;;14.49;62.19;102363.91;5070373;28;20053;-71
2023/10/16 02:56:05;;;;;;;0.20;0.20;;;;;;;14.11;63.49;102366.53;5070271;28;20033;-71
2023/10/16 02:58:31;;;;;;;0.13;0.13;;;;;;;14.08;63.72;102366.94;5070797;28;20032;-70
2023/10/16 03:00:58;;;;;;;0.30;0.30;;;;;;;15.12;60.43;102362.16;5070965;28;20055;-71
2023/10/16 03:03:24;;;;;;;0.20;0.20;;;;;;;15.25;60.90;102359.38;5070921;28;20035;-69
2023/10/16 03:05:55;;;;;;;0.30;0.30;;;;;;;15.92;58.27;102362.16;5071024;28;20072;-72
2023/10/16 03:08:29;;;;;;;0.30;0.30;;;;;;;15.85;57.75;102355.97;5070902;28;20052;-71
2023/10/16 03:11:06;;;;;;;0.30;0.30;;;;;;;15.97;57.78;102353.38;5071017;28;20044;-71
2023/10/16 03:13:35;;;;;;;0.20;0.20;;;;;;;16.06;57.88;102354.75;5070952;28;20058;-71
2023/10/16 03:16:11;;;;;;;0.32;0.32;;;;;;;14.97;61.39;102351.63;5070989;28;20032;-71
2023/10/16 03:18:43;;;;;;;0.30;0.30;;;;;;;15.35;60.58;102360.53;5052489;28;20062;-71
2023/10/16 03:23:43;;;;;;;0.28;0.28;;;;;;;15.10;61.36;102359.66;5070608;28;20044;-72
2023/10/16 03:26:31;;;;;;;0.40;0.40;;;;;;;15.76;59.21;102352.72;5053596;28;20666;-71
2023/10/16 03:29:05;;;;;;;0.20;0.20;;;;;;;15.70;59.13;102355.50;5070819;28;20155;-70
2023/10/16 03:31:31;;;;;;;0.30;0.30;;;;;;;15.43;60.04;102349.47;5070553;28;20031;-71
2023/10/16 03:33:56;;;;;;;0.20;0.20;;;;;;;14.57;63.64;102350.16;5070578;28;20119;-71
2023/10/16 03:36:22;;;;;;;0.28;0.28;;;;;;;15.03;62.15;102344.50;5071312;28;20099;-71
2023/10/16 03:38:51;;;;;;;0.43;0.43;;;;;;;15.43;60.42;102344.03;5070865;28;20059;-72
2023/10/16 03:43:56;;;;;;;0.20;0.20;;;;;;;14.57;63.78;102345.59;5070905;28;20052;-70
2023/10/16 03:46:26;;;;;;;0.30;0.30;;;;;;;14.20;64.36;102343.59;5076017;28;20033;-71
2023/10/16 03:48:52;;;;;;;0.30;0.30;;;;;;;15.16;61.81;102339.00;5070253;28;20037;-72
2023/10/16 03:51:17;;;;;;;0.30;0.30;;;;;;;15.04;61.86;102346.16;5070803;28;20019;-71
2023/10/16 03:53:44;;;;;;;0.30;0.30;;;;;;;14.55;62.97;102350.38;5070168;28;20056;-72
2023/10/16 03:56:11;;;;;;;0.30;0.30;;;;;;;15.36;59.90;102345.94;5070257;28;20042;-71
2023/10/16 03:58:41;;;;;;;0.30;0.30;;;;;;;15.14;60.16;102343.81;5069738;28;20465;-71
2023/10/16 04:01:07;;;;;;;0.40;0.40;;;;;;;15.62;59.40;102340.34;5066821;28;20059;-70
2023/10/16 04:06:19;;;;;;;0.20;0.20;;;;;;;14.70;62.95;102353.63;5022049;28;20060;-70
2023/10/16 04:08:49;;;;;;;0.28;0.28;;;;;;;15.22;61.58;102351.66;5027212;28;20045;-70
2023/10/16 04:11:20;;;;;;;0.25;0.25;;;;;;;14.73;63.03;102352.38;5027026;28;20030;-71
2023/10/16 04:13:48;;;;;;;0.30;0.30;;;;;;;14.72;64.00;102356.16;5027183;28;20041;-72
2023/10/16 04:21:40;;;;;;;0.40;0.40;;;;;;;14.36;65.08;102350.44;5027167;28;20033;-71
2023/10/16 04:24:30;;;;;;;0.25;0.25;;;;;;;14.80;63.80;102347.78;5028016;28;20668;-71
2023/10/16 04:27:29;;;;;;;0.40;0.40;;;;;;;14.55;65.53;102342.25;5027325;28;20136;-70
2023/10/16 04:29:49;;;;;;;0.30;0.30;;;;;;;14.57;64.29;102344.75;5027305;28;20556;-70
2023/10/16 04:35:04;;;;;;;0.40;0.40;;;;;;;15.38;61.96;102341.16;5027620;28;20099;-70
2023/10/16 04:37:29;;;;;;;0.20;0.20;;;;;;;14.95;62.71;102335.63;5010753;28;20041;-70
2023/10/16 04:50:30;;;;;;;0.50;0.50;;;;;;;15.17;61.96;102313.59;5070016;28;20379;-70
2023/10/16 05:11:33;;;;;;;0.20;0.20;;;;;;;15.48;60.86;102298.16;5008413;28;20065;-70
2023/10/16 06:14:09;;;;;;;0.43;0.43;;;;;;;14.71;65.41;102301.19;5021673;28;20522;-70
2023/10/16 06:14:16;;;;;;;0.20;0.20;;;;;;;15.66;62.19;102314.44;5072074;28;20067;-71
2023/10/16 06:16:42;;;;;;;0.30;0.30;;;;;;;15.80;61.70;102315.97;5071589;28;20040;-70
2023/10/16 06:19:14;;;;;;;0.50;0.50;;;;;;;15.05;64.09;102318.88;5072175;28;20082;-72
2023/10/16 06:21:51;;;;;;;0.32;0.32;;;;;;;15.36;64.27;102318.03;5071274;28;20051;-73
2023/10/16 06:26:54;;;;;;;0.40;0.40;;;;;;;16.10;61.21;102317.97;5072031;28;20044;-70
2023/10/16 06:29:20;;;;;;;0.20;0.20;;;;;;;15.71;61.96;102322.75;5071335;28;20043;-72
2023/10/16 06:31:53;;;;;;;0.25;0.25;;;;;;;16.18;60.77;102314.94;5071192;28;20036;-70
2023/10/16 06:34:20;;;;;;;0.25;0.25;;;;;;;16.06;61.64;102323.00;5080227;28;20518;-70
2023/10/16 06:36:47;;;;;;;0.30;0.30;;;;;;;16.23;61.02;102326.81;5079738;28;20037;-71
2023/10/16 06:39:35;;;;;;;0.20;0.20;;;;;;;16.01;62.03;102325.59;5072190;28;20043;-71
2023/10/16 06:42:02;;;;;;;0.30;0.30;;;;;;;15.80;62.07;102329.53;5051675;28;20033;-71
2023/10/16 06:44:28;;;;;;;0.20;0.20;;;;;;;16.46;60.21;102323.38;5068670;28;20562;-69
2023/10/16 06:46:59;;;;;;;0.20;0.20;;;;;;;16.78;59.08;102327.59;5071375;28;20037;-71
2023/10/16 06:49:35;;;;;;;0.20;0.20;;;;;;;16.80;58.93;102324.66;5071499;28;20080;-70
2023/10/16 06:52:04;;;;;;;0.30;0.30;;;;;;;16.78;59.51;102327.59;5071426;28;20090;-73
2023/10/16 06:54:37;;;;;;;0.40;0.40;;;;;;;16.88;58.84;102327.03;5071021;28;20115;-70
2023/10/16 06:57:10;;;;;;;0.43;0.43;;;;;;;17.00;58.86;102333.34;5072109;28;20115;-71
2023/10/16 06:59:40;;;;;;;0.25;0.25;;;;;;;16.94;59.52;102340.53;5031154;28;20044;-69
2023/10/16 07:02:16;;;;;;;0.30;0.30;;;;;;;16.93;59.53;102347.00;5045348;28;20029;-70
2023/10/16 07:04:45;;;;;;;0.20;0.20;;;;;;;16.44;60.20;102350.75;5051040;28;20439;-70
2023/10/16 07:07:16;;;;;;;0.30;0.30;;;;;;;16.47;60.84;102344.88;5032409;28;20045;-70
2023/10/16 07:09:49;;;;;;;0.25;0.25;;;;;;;16.29;61.92;102342.19;5066029;28;20396;-70
2023/10/16 07:12:16;;;;;;;0.10;0.10;;;;;;;16.31;61.17;102344.66;5071737;28;20388;-70
2023/10/16 07:14:55;;;;;;;0.30;0.30;;;;;;;15.89;62.23;102342.81;5070664;28;20126;-69
2023/10/16 07:17:30;;;;;;;0.25;0.25;;;;;;;16.58;61.41;102337.88;5070631;28;20198;-70
2023/10/16 07:19:59;;;;;;;0.20;0.20;;;;;;;15.71;63.40;102336.31;5070780;28;20069;-70
2023/10/16 07:22:31;;;;;;;0.30;0.30;;;;;;;15.29;65.56;102338.94;5070631;28;20037;-70
2023/10/16 07:27:45;;;;;;;0.40;0.40;;;;;;;15.48;65.07;102340.69;5070906;28;20043;-70
2023/10/16 07:30:21;;;;;;;0.22;0.22;;;;;;;15.35;65.77;102338.84;5076510;28;20448;-69
2023/10/16 07:32:47;;;;;;;0.30;0.30;;;;;;;15.71;64.49;102333.59;5080562;28;20067;-71
2023/10/16 07:35:17;;;;;;;0.20;0.20;;;;;;;16.11;61.80;102339.47;5070219;28;20487;-71
2023/10/16 07:37:42;;;;;;;0.30;0.30;;;;;;;16.31;63.02;102342.75;5070726;28;20547;-70
2023/10/16 07:40:08;;;;;;;0.30;0.30;;;;;;;16.95;59.92;102342.19;5070739;28;20100;-70
2023/10/16 07:42:35;;;;;;;0.30;0.30;;;;;;;17.69;57.92;102340.84;5070235;28;20069;-71
2023/10/16 07:45:01;;;;;;;0.38;0.38;;;;;;;18.34;55.64;102345.88;5071132;28;20031;-70
2023/10/16 07:47:26;;;;;;;0.30;0.30;;;;;;;18.25;55.38;102343.75;5070177;28;20583;-70
2023/10/16 07:49:51;;;;;;;0.30;0.30;;;;;;;17.93;57.26;102345.19;5070359;28;20515;-71
2023/10/16 07:52:18;;;;;;;0.30;0.30;;;;;;;18.34;55.98;102345.88;5070356;28;20619;-70
2023/10/16 07:54:43;;;;;;;0.40;0.40;;;;;;;18.53;55.41;102354.75;5070155;28;20040;-70
2023/10/16 07:57:09;;;;;;;0.30;0.30;;;;;;;17.55;57.88;102346.47;5070557;28;20070;-70
2023/10/16 07:59:36;;;;;;;0.20;0.20;;;;;;;17.83;57.90;102356.66;5070085;28;20029;-69
2023/10/16 08:02:04;;;;;;;0.28;0.28;;;;;;;18.18;56.31;102357.47;5069604;28;20043;-70
2023/10/16 08:04:35;;;;;;;0.35;0.35;;;;;;;17.24;59.79;102352.19;5069482;28;20044;-70
2023/10/16 08:07:08;;;;;;;0.30;0.30;;;;;;;18.21;57.35;102362.47;5069641;28;20093;-70
2023/10/16 08:12:34;;;;;;;0.20;0.20;;;;;;;17.14;59.86;102364.69;5070146;28;20424;-71
2023/10/16 08:14:46;;;;;;;0.20;0.20;;;;;;;17.59;58.41;102360.47;5066243;28;20388;-69
2023/10/16 08:17:15;;;;;;;0.30;0.30;;;;;;;17.64;58.39;102354.28;5069250;28;20538;-70
2023/10/16 08:19:41;;;;;;;0.30;0.30;;;;;;;18.24;57.29;102358.41;5051569;28;20040;-70
2023/10/16 08:22:13;;;;;;;0.30;0.30;;;;;;;18.63;55.80;102365.00;5069560;28;20173;-70
2023/10/16 08:24:43;;;;;;;0.20;0.20;;;;;;;18.24;57.04;102355.69;5050491;28;20469;-70
2023/10/16 08:27:19;;;;;;;0.30;0.30;;;;;;;17.82;58.21;102365.06;5069344;28;20043;-70
2023/10/16 08:29:54;;;;;;;0.30;0.30;;;;;;;17.91;59.46;102361.75;5066380;28;20047;-71
2023/10/16 08:35:09;;;;;;;0.30;0.30;;;;;;;17.69;58.88;102360.69;5068851;28;20114;-70
2023/10/16 08:37:36;;;;;;;0.10;0.10;;;;;;;18.53;56.49;102362.06;5069062;28;20506;-69
2023/10/16 08:40:01;;;;;;;0.20;0.20;;;;;;;18.05;57.75;102355.03;5069020;28;20520;-70
2023/10/16 08:42:27;;;;;;;0.22;0.22;;;;;;;17.86;58.92;102366.25;5068984;28;20099;-70
2023/10/16 08:45:14;;;;;;;0.20;0.20;;;;;;;18.33;59.26;102371.44;5070518;28;20052;-70
2023/10/16 08:47:42;;;;;;;0.40;0.40;;;;;;;18.35;58.59;102365.75;5071364;28;20047;-69
2023/10/16 08:50:17;;;;;;;0.10;0.10;;;;;;;19.12;55.11;102367.88;5072468;28;20050;-71
2023/10/16 08:52:49;;;;;;;0.20;0.20;;;;;;;18.22;57.64;102364.09;5072438;28;20039;-71
2023/10/16 08:55:15;;;;;;;0.13;0.13;;;;;;;19.24;55.47;102376.00;5071706;28;20082;-70
2023/10/16 08:57:44;;;;;;;0.20;0.20;;;;;;;19.58;54.89;102363.25;5073018;28;20025;-71
2023/10/16 09:00:19;;;;;;;0.10;0.10;;;;;;;19.42;54.50;102362.16;5073758;28;20135;-70
2023/10/16 09:02:48;;;;;;;0.20;0.20;;;;;;;18.78;56.08;102379.75;5053075;28;20100;-71
2023/10/16 09:05:16;;;;;;;0.28;0.28;;;;;;;17.57;60.57;102378.91;5053262;28;20041;-70
2023/10/16 09:07:42;;;;;;;0.13;0.13;;;;;;;19.16;57.06;102382.66;5062686;28;20032;-70
2023/10/16 09:10:09;;;;;;;0.10;0.10;;;;;;;18.96;57.65;102376.84;5072418;28;20079;-70
2023/10/16 09:12:44;;;;;;;0.10;0.10;;;;;;;19.22;56.91;102380.88;5072310;28;20013;-69
2023/10/16 09:15:14;;;;;;;0.20;0.20;;;;;;;19.55;55.35;102372.78;5071872;28;20101;-71
2023/10/16 09:17:39;;;;;;;0.15;0.15;;;;;;;19.51;55.07;102370.78;5069287;28;20519;-70
2023/10/16 09:20:14;;;;;;;0.20;0.20;;;;;;;19.15;56.61;102375.56;5071763;28;20102;-70
2023/10/16 09:22:47;;;;;;;0.20;0.20;;;;;;;19.55;55.08;102369.22;5054407;28;20054;-69
2023/10/16 09:25:15;;;;;;;0.10;0.10;;;;;;;18.75;57.73;102374.78;5053044;28;20040;-69
2023/10/16 09:27:42;;;;;;;0.20;0.20;;;;;;;19.09;57.03;102378.44;5052684;28;20058;-69
2023/10/16 09:30:14;;;;;;;0.20;0.20;;;;;;;19.22;55.81;102376.22;5072290;28;20475;-70
2023/10/16 09:32:40;;;;;;;0.30;0.30;;;;;;;19.52;54.74;102372.44;5071347;28;20033;-71
2023/10/16 09:35:11;;;;;;;0.20;0.20;;;;;;;19.74;54.83;102379.63;5071430;28;20055;-70
2023/10/16 09:37:37;;;;;;;;;;;;;;;20.54;53.31;102379.19;5072062;28;20455;-70
2023/10/16 09:40:19;;;;;;;0.10;0.10;;;;;;;21.23;51.62;102363.88;5070883;28;19912;-70
2023/10/16 09:42:56;;;;;;;0.30;0.30;;;;;;;20.02;54.00;102367.78;5070674;28;20082;-70
2023/10/16 09:45:25;;;;;;;0.20;0.20;;;;;;;20.61;52.91;102366.97;5071831;28;20438;-70
2023/10/16 09:47:57;;;;;;;0.20;0.20;;;;;;;19.96;54.81;102369.59;5071253;28;20043;-70
2023/10/16 09:50:24;;;;;;;0.20;0.20;;;;;;;20.41;53.33;102371.34;5071403;28;20496;-70
2023/10/16 09:52:49;;;;;;;0.20;0.20;;;;;;;21.01;51.91;102374.84;5071577;28;20033;-70
2023/10/16 09:55:18;;;;;;;0.20;0.20;;;;;;;21.15;51.89;102367.06;5071649;28;20055;-69
2023/10/16 09:57:54;;;;;;;0.10;0.10;;;;;;;20.64;52.35;102365.63;5070282;28;20032;-70
2023/10/16 10:02:51;;;;;;;0.30;0.30;;;;;;;20.36;53.06;102353.00;5071165;28;20024;-70
2023/10/16 10:05:22;;;;;;;0.20;0.20;;;;;;;20.19;53.27;102362.28;5071552;28;20045;-69
2023/10/16 10:07:49;;;;;;;0.20;0.20;;;;;;;20.76;52.04;102355.38;5066224;28;20064;-69
2023/10/16 10:13:10;;;;;;;0.20;0.20;;;;;;;20.70;52.58;102364.59;5071721;28;20040;-69
2023/10/16 10:15:42;;;;;;;0.10;0.10;;;;;;;20.40;53.29;102358.78;5071178;28;20032;-71
2023/10/16 10:20:58;;;;;;;0.10;0.10;;;;;;;21.28;49.34;102358.44;5069582;28;20043;-71
2023/10/16 10:23:27;;;;;;;0.20;0.20;;;;;;;20.77;50.04;102365.25;5053749;28;20135;-71
2023/10/16 10:25:53;;;;;;;0.30;0.30;;;;;;;20.90;49.81;102357.47;5071063;28;20041;-72
2023/10/16 10:28:25;;;;;;;0.28;0.28;;;;;;;21.27;49.21;102357.59;5071181;28;20067;-71
2023/10/16 10:30:55;;;;;;;0.10;0.10;;;;;;;20.78;51.11;102359.53;5068036;28;20032;-70
2023/10/16 10:33:51;;;;;;;0.10;0.10;;;;;;;21.12;48.86;102362.09;5071650;28;20051;-69
2023/10/16 10:36:33;;;;;;;0.28;0.28;;;;;;;22.01;46.79;102358.50;5071665;28;20040;-71
2023/10/16 10:39:21;;;;;;;0.20;0.20;;;;;;;21.75;47.90;102353.91;5071515;28;20144;-70
2023/10/16 10:41:47;;;;;;;0.20;0.20;;;;;;;20.34;50.47;102362.53;5071200;28;20041;-71
2023/10/16 10:44:14;;;;;;;0.10;0.10;;;;;;;21.86;46.95;102357.59;5071354;28;20044;-71
2023/10/16 10:46:49;;;;;;;0.20;0.20;;;;;;;21.42;47.81;102354.19;5071344;28;20400;-72
2023/10/16 10:49:17;;;;;;;0.17;0.17;;;;;;;21.15;46.39;102347.94;5071072;28;20036;-70
2023/10/16 10:51:46;;;;;;;0.20;0.20;;;;;;;21.37;45.99;102351.41;5071013;28;20392;-69
2023/10/16 10:54:13;;;;;;;0.20;0.20;;;;;;;21.79;44.92;102353.13;5070987;28;20376;-71
2023/10/16 10:56:50;;;;;;;0.20;0.20;;;;;;;21.41;43.51;102344.31;5070313;28;20154;-70
2023/10/16 10:59:39;;;;;;;0.20;0.20;;;;;;;22.05;45.04;102347.84;5070276;28;20464;-70
2023/10/16 11:04:47;;;;;;;0.10;0.10;;;;;;;22.43;43.06;102342.00;5068417;28;20136;-71
2023/10/16 11:07:25;;;;;;;0.10;0.10;;;;;;;23.24;41.97;102340.31;5069507;28;20036;-70
2023/10/16 11:09:56;;;;;;;0.10;0.10;;;;;;;23.71;40.86;102334.56;5068323;28;20068;-71
2023/10/16 11:12:26;;;;;;;0.10;0.10;;;;;;;20.90;45.03;102337.50;5068177;28;20066;-70
2023/10/16 11:14:53;;;;;;;0.10;0.10;;;;;;;20.56;47.22;102330.59;5069878;28;20058;-70
2023/10/16 11:17:34;;;;;;;0.10;0.10;;;;;;;20.56;47.63;102336.84;5069867;28;21022;-70
2023/10/16 11:22:45;;;;;;;0.00;0.00;;;;;;;21.75;42.99;102332.00;5067353;28;20037;-71
2023/10/16 11:25:13;;;;;;;0.10;0.10;;;;;;;21.48;43.99;102325.78;5069927;28;20684;-71
2023/10/16 11:27:43;;;;;;;0.10;0.10;;;;;;;20.47;45.03;102327.47;5069770;28;20067;-72
2023/10/16 11:30:18;;;;;;;0.10;0.10;;;;;;;21.10;43.15;102326.81;5070169;28;20023;-71
2023/10/16 11:32:46;;;;;;;0.13;0.13;;;;;;;21.51;43.66;102331.56;5066545;28;20461;-71
2023/10/16 11:35:19;;;;;;;0.10;0.10;;;;;;;22.49;41.42;102329.97;5068220;28;20515;-71
2023/10/16 11:37:55;;;;;;;0.10;0.10;;;;;;;22.44;41.39;102322.56;5067984;28;20040;-71
2023/10/16 11:40:31;;;;;;;0.17;0.17;;;;;;;22.05;40.85;102315.81;5067230;28;20026;-71
2023/10/16 11:42:58;;;;;;;0.13;0.13;;;;;;;22.69;41.03;102322.69;5069504;28;20397;-71
2023/10/16 11:45:24;;;;;;;0.10;0.10;;;;;;;21.38;42.75;102312.88;5069206;28;20020;-68
2023/10/16 11:50:38;;;;;;;0.15;0.15;;;;;;;22.19;41.63;102314.22;5066378;28;20097;-70
2023/10/16 11:53:07;;;;;;;0.20;0.20;;;;;;;21.12;42.33;102318.34;5069509;28;20028;-68
2023/10/16 11:55:38;;;;;;;0.20;0.20;;;;;;;21.05;43.75;102315.81;5069892;28;20032;-72
2023/10/16 11:58:07;;;;;;;0.10;0.10;;;;;;;21.58;42.60;102314.94;5068928;28;20070;-70
2023/10/16 12:00:35;;;;;;;0.10;0.10;;;;;;;21.50;41.83;102310.75;5069596;28;20047;-70
2023/10/16 12:03:07;;;;;;;0.20;0.20;;;;;;;22.02;40.19;102310.03;5069587;28;20016;-71
2023/10/16 12:05:34;;;;;;;0.10;0.10;;;;;;;20.84;42.25;102309.31;5067248;28;20033;-70
2023/10/16 12:08:02;;;;;;;0.10;0.10;;;;;;;21.45;42.85;102298.94;5069159;28;20041;-70
2023/10/16 12:10:31;;;;;;;0.10;0.10;;;;;;;21.44;41.80;102303.63;5069591;28;20468;-70
2023/10/16 12:12:57;;;;;;;0.13;0.13;;;;;;;20.68;42.30;102298.47;5071711;28;20118;-71
2023/10/16 12:15:25;;;;;;;0.20;0.20;;;;;;;20.11;42.95;102308.94;5069628;28;20021;-70
2023/10/16 12:17:53;;;;;;;0.20;0.20;;;;;;;20.47;43.56;102296.59;5066741;28;20487;-70
2023/10/16 12:20:21;;;;;;;0.10;0.10;;;;;;;21.30;42.20;102296.94;5070990;28;20333;-70
2023/10/16 12:22:47;;;;;;;0.20;0.20;;;;;;;21.63;40.88;102298.53;5073358;28;20060;-70
2023/10/16 12:25:12;;;;;;;0.10;0.10;;;;;;;21.50;41.26;102294.34;5073443;28;20044;-70
2023/10/16 12:27:38;;;;;;;0.20;0.20;;;;;;;21.36;41.52;102292.31;5055647;28;20620;-70
2023/10/16 12:30:05;;;;;;;0.20;0.20;;;;;;;21.06;42.38;102292.06;5073787;28;20023;-72
2023/10/16 12:32:32;;;;;;;0.20;0.20;;;;;;;20.31;43.78;102292.03;5070547;28;20074;-70
2023/10/16 12:35:00;;;;;;;0.10;0.10;;;;;;;20.73;43.61;102288.44;5073214;28;20028;-70
2023/10/16 12:37:26;;;;;;;0.10;0.10;;;;;;;21.96;39.97;102279.06;5072985;28;20043;-71
2023/10/16 12:39:54;;;;;;;0.20;0.20;;;;;;;20.52;42.50;102281.09;5072548;28;20043;-71
2023/10/16 12:42:20;;;;;;;0.10;0.10;;;;;;;21.36;40.35;102274.00;5073653;28;20037;-70
2023/10/16 12:44:45;;;;;;;0.10;0.10;;;;;;;22.26;40.16;102281.13;5072294;28;20082;-70
2023/10/16 12:47:12;;;;;;;0.20;0.20;;;;;;;22.88;38.21;102281.06;5051886;28;20059;-71
2023/10/16 12:49:38;;;;;;;0.10;0.10;;;;;;;21.93;39.42;102276.03;5072894;28;20044;-70
2023/10/16 12:52:03;;;;;;;0.20;0.20;;;;;;;21.34;40.85;102269.88;5072835;28;20065;-71
2023/10/16 12:54:30;;;;;;;0.10;0.10;;;;;;;22.04;38.93;102267.59;5072794;28;20032;-70
2023/10/16 12:56:57;;;;;;;0.10;0.10;;;;;;;22.68;38.13;102262.66;5073693;28;20119;-71
2023/10/16 12:59:22;;;;;;;0.10;0.10;;;;;;;20.59;41.27;102267.25;5072389;28;20032;-71
2023/10/16 13:01:52;;;;;;;0.10;0.10;;;;;;;21.66;40.17;102265.19;5072348;28;20024;-71
2023/10/16 13:04:18;;;;;;;0.10;0.10;;;;;;;23.05;38.54;102256.94;5054588;28;20036;-72
2023/10/16 13:06:46;;;;;;;0.17;0.17;;;;;;;22.99;38.84;102264.34;5058453;28;20506;-70
2023/10/16 13:09:16;;;;;;;0.10;0.10;;;;;;;22.82;38.19;102269.25;5031382;28;20107;-71
2023/10/16 13:11:42;;;;;;;0.10;0.10;;;;;;;22.73;37.18;102264.56;5032643;28;20073;-70
2023/10/16 13:14:08;;;;;;;0.10;0.10;;;;;;;22.43;39.40;102266.13;5032383;28;20060;-70
2023/10/16 13:16:33;;;;;;;0.10;0.10;;;;;;;22.74;37.06;102264.31;5030086;28;20033;-72
2023/10/16 13:18:59;;;;;;;0.20;0.20;;;;;;;21.65;40.21;102256.16;5031835;28;20417;-72
2023/10/16 13:21:34;;;;;;;0.20;0.20;;;;;;;22.46;37.49;102259.28;5031714;28;20040;-70
2023/10/16 13:24:00;;;;;;;0.20;0.20;;;;;;;22.21;38.67;102265.47;5030390;28;20045;-71
2023/10/16 13:26:27;;;;;;;0.20;0.20;;;;;;;22.18;39.11;102268.78;5030337;28;20072;-70
2023/10/16 13:28:53;;;;;;;0.20;0.20;;;;;;;22.21;39.30;102268.22;5028819;28;20466;-71
2023/10/16 13:31:19;;;;;;;0.10;0.10;;;;;;;23.48;36.02;102257.22;5028765;28;20041;-71
2023/10/16 13:33:49;;;;;;;0.10;0.10;;;;;;;23.70;36.68;102256.09;5031356;28;20038;-70
2023/10/16 13:36:17;;;;;;;0.10;0.10;;;;;;;23.28;37.35;102265.44;5029885;28;20389;-71
2023/10/16 13:38:44;;;;;;;0.13;0.13;;;;;;;23.23;37.07;102257.19;5031269;28;20045;-72
2023/10/16 13:41:19;;;;;;;0.10;0.10;;;;;;;23.11;35.61;102256.69;5030992;28;20033;-71
2023/10/16 13:43:46;;;;;;;0.10;0.10;;;;;;;22.17;38.06;102261.63;5029398;28;20072;-71
2023/10/16 13:46:13;;;;;;;0.10;0.10;;;;;;;22.33;37.19;102260.59;5028495;28;20528;-71
2023/10/16 13:48:45;;;;;;;0.10;0.10;;;;;;;23.25;35.50;102254.19;5031383;28;20493;-71
2023/10/16 13:51:13;;;;;;;0.10;0.10;;;;;;;21.87;38.87;102255.22;5031336;28;20021;-71